< Typhoon 202113 2021 Season Typhoon 202115 >
Typhoon 202114 (CHANTHU)
General InformationTrack Information on Google MapsDetailed Wind InformationForecast History on Google MapsAccess Analytics MapList of All Images || NewsDisaster Info.WeblogTrackbackTyphoon FrontTwiphoonTyphoon Now!Typhoon ImaginationJMA Disaster Info. XMLResourceGoogle EarthGE AnimationAtom FeedGeoJSON
Detalied Best Track (Time Zone = UTC)
Year Month Day Hour Lat. Long. Pressure (hPa) Wind (kt) Class Image Chart
2021 9 5 06 12.4 140.5 1006 0 2 Image Chart
2021 9 5 12 13.0 139.9 1008 0 2 Image Chart
2021 9 5 18 13.4 139.5 1006 0 2 Image Chart
2021 9 6 00 13.5 139.0 1006 0 2 Image Chart
2021 9 6 06 13.9 138.6 1004 0 2 Image Chart
2021 9 6 12 14.6 138.0 1002 35 3 Image Chart
2021 9 6 18 15.3 137.4 1000 35 3 Image Chart
2021 9 7 00 15.7 136.4 994 45 3 Image Chart
2021 9 7 06 16.1 135.6 990 55 4 Image Chart
2021 9 7 12 16.3 134.5 980 65 5 Image Chart
2021 9 7 18 16.3 133.5 960 80 5 Image Chart
2021 9 8 00 16.0 132.4 950 90 5 Image Chart
2021 9 8 06 15.7 131.4 940 95 5 Image Chart
2021 9 8 12 15.6 130.3 940 95 5 Image Chart
2021 9 8 18 15.4 129.1 935 100 5 Image Chart
2021 9 9 00 15.5 128.0 935 100 5 Image Chart
2021 9 9 06 15.8 127.1 935 100 5 Image Chart
2021 9 9 12 16.1 125.9 935 100 5 Image Chart
2021 9 9 18 16.6 124.9 935 100 5 Image Chart
2021 9 10 00 17.1 124.1 930 105 5 Image Chart
2021 9 10 06 17.8 123.5 910 115 5 Image Chart
2021 9 10 12 18.7 122.9 910 115 5 Image Chart
2021 9 10 18 19.5 122.3 905 115 5 Image Chart
2021 9 11 00 20.3 121.9 905 115 5 Image Chart
2021 9 11 06 21.0 121.5 910 110 5 Image Chart
2021 9 11 12 21.8 121.8 920 105 5 Image Chart
2021 9 11 18 22.8 122.0 935 100 5 Image Chart
2021 9 11 21 23.3 122.1 935 100 5 Image Chart
2021 9 12 00 23.8 122.3 935 100 5 Image Chart
2021 9 12 03 24.6 122.4 940 95 5 Image Chart
2021 9 12 06 25.2 122.3 950 90 5 Image Chart
2021 9 12 09 25.7 122.4 955 85 5 Image Chart
2021 9 12 12 26.2 122.6 960 80 5 Image Chart
2021 9 12 18 27.6 123.0 955 85 5 Image Chart
2021 9 13 00 29.1 123.5 955 85 5 Image Chart
2021 9 13 06 30.7 123.3 960 80 5 Image Chart
2021 9 13 12 30.9 123.2 970 75 5 Image Chart
2021 9 13 18 31.4 123.5 975 70 5 Image Chart
2021 9 14 00 31.3 123.8 980 65 5 Image Chart
2021 9 14 06 30.9 124.2 985 55 4 Image Chart
2021 9 14 12 30.5 124.7 990 50 4 Image Chart
2021 9 14 18 30.2 125.1 992 45 3 Image Chart
2021 9 15 00 30.3 125.7 992 45 3 Image Chart
2021 9 15 06 30.4 125.9 992 45 3 Image Chart
2021 9 15 12 30.2 125.7 992 45 3 Image Chart
2021 9 15 18 30.2 125.3 990 50 4 Image Chart
2021 9 16 00 30.4 125.0 990 50 4 Image Chart
2021 9 16 06 31.1 125.3 990 50 4 Image Chart
2021 9 16 12 31.7 125.8 990 50 4 Image Chart
2021 9 16 15 31.9 126.0 990 50 4 Image Chart
2021 9 16 18 32.3 126.4 990 50 4 Image Chart
2021 9 16 21 32.6 126.8 990 50 4 Image Chart
2021 9 17 00 32.9 127.5 990 50 4 Image Chart
2021 9 17 03 33.3 128.3 990 50 4 Image Chart
2021 9 17 06 33.5 129.2 990 50 4 Image Chart
2021 9 17 09 33.8 130.2 990 50 4 Image Chart
2021 9 17 12 33.8 131.6 992 45 3 Image Chart
2021 9 17 15 33.8 132.5 994 45 3 Image Chart
2021 9 17 18 33.8 134.1 994 45 3 Image Chart
2021 9 17 21 34.0 135.1 996 40 3 Image Chart
2021 9 18 00 34.5 136.5 1000 35 3 Image Chart
2021 9 18 03 34.3 137.1 1000 35 3 Image Chart
2021 9 18 06 34.4 137.6 1002 0 6 Image Chart
2021 9 18 12 34.4 139.1 1004 0 6 Image Chart
2021 9 18 18 34.0 140.4 1006 0 6 Image Chart
2021 9 19 00 33.6 140.9 1008 0 6 Image Chart
2021 9 19 06 33.0 141.1 1008 0 6 Image Chart
2021 9 19 12 32.5 141.2 1010 0 6 Image Chart
2021 9 19 18 32.2 141.0 1010 0 6 Image Chart
2021 9 20 00 31.8 140.7 1010 0 6 Image Chart
Japan Meteorological Agency Best Track Data | Correction Date : 2021-12-18
< Typhoon 202113 2021 Season Typhoon 202115 >

Help